createdAt,value
2022-08-05T00:01:51.058Z,73.38
2022-08-05T00:04:20.506Z,73.40
2022-08-05T00:06:51.735Z,72.92
2022-08-05T00:09:19.880Z,72.55
2022-08-05T00:11:55.689Z,72.57
2022-08-05T00:14:29.223Z,72.81
2022-08-05T00:16:59.202Z,73.02
2022-08-05T00:19:33.145Z,73.27
2022-08-05T00:22:02.609Z,73.19
2022-08-05T00:24:31.116Z,73.09
2022-08-05T00:27:00.530Z,73.50
2022-08-05T00:29:37.666Z,74.00
2022-08-05T00:32:12.499Z,74.35
2022-08-05T00:35:03.400Z,74.58
2022-08-05T00:37:50.649Z,74.63
2022-08-05T00:40:29.279Z,74.49
2022-08-05T00:43:02.441Z,74.54
2022-08-05T00:45:42.913Z,74.98
2022-08-05T00:48:16.652Z,75.13
2022-08-05T00:50:46.786Z,75.84
2022-08-05T00:54:01.242Z,76.15
2022-08-05T00:56:09.285Z,76.64
2022-08-05T00:58:39.001Z,76.62
2022-08-05T01:01:42.983Z,76.91
2022-08-05T01:04:13.671Z,77.59
2022-08-05T01:06:46.691Z,77.52
2022-08-05T01:09:17.367Z,77.49
2022-08-05T01:11:52.090Z,78.11
2022-08-05T01:14:44.866Z,78.85
2022-08-05T01:17:39.908Z,78.84
2022-08-05T01:20:30.916Z,78.41
2022-08-05T01:23:14.252Z,77.98
2022-08-05T01:26:10.529Z,77.95
2022-08-05T01:28:39.714Z,78.16
2022-08-05T01:31:16.750Z,78.37
2022-08-05T01:34:04.817Z,78.91
2022-08-05T01:36:47.712Z,79.92
2022-08-05T01:39:45.755Z,80.32
2022-08-05T01:42:09.836Z,80.47
2022-08-05T01:44:42.607Z,80.54
2022-08-05T01:47:19.095Z,80.78
2022-08-05T01:50:01.809Z,80.81
2022-08-05T01:52:34.812Z,81.04
2022-08-05T01:55:14.354Z,80.69
2022-08-05T01:58:29.417Z,80.99
2022-08-05T02:00:48.137Z,82.35
2022-08-05T02:03:34.476Z,83.39
2022-08-05T02:06:33.907Z,83.59
2022-08-05T02:08:58.033Z,82.96
2022-08-05T02:11:33.978Z,83.16
2022-08-05T02:14:14.888Z,82.81
2022-08-05T02:16:54.476Z,82.94
2022-08-05T02:19:36.583Z,83.38
2022-08-05T02:22:27.510Z,83.55
2022-08-05T02:25:05.185Z,84.28
2022-08-05T02:27:58.911Z,84.82
2022-08-05T02:30:34.481Z,84.81
2022-08-05T02:33:04.826Z,84.48
2022-08-05T02:35:51.040Z,84.91
2022-08-05T02:38:28.696Z,83.76
2022-08-05T02:41:14.661Z,83.52
2022-08-05T02:44:02.774Z,83.55
2022-08-05T02:46:53.138Z,83.82
2022-08-05T02:49:36.878Z,83.09
2022-08-05T02:52:09.867Z,82.91
2022-08-05T02:54:50.690Z,82.37
2022-08-05T02:58:09.832Z,82.23
2022-08-05T03:00:14.963Z,82.42
2022-08-05T03:02:47.006Z,83.32
2022-08-05T03:05:17.214Z,82.94
2022-08-05T03:08:07.165Z,82.52
2022-08-05T03:10:39.573Z,82.90
2022-08-05T03:13:17.048Z,82.98
2022-08-05T03:15:47.082Z,83.40
2022-08-05T03:18:18.141Z,83.03
2022-08-05T03:20:52.437Z,83.04
2022-08-05T03:23:24.186Z,83.00
2022-08-05T03:26:04.859Z,83.17
2022-08-05T03:28:43.476Z,83.25
2022-08-05T03:31:18.232Z,83.22
2022-08-05T03:34:00.566Z,82.23
2022-08-05T03:36:30.546Z,82.42
2022-08-05T03:38:58.994Z,82.87
2022-08-05T03:41:26.683Z,82.66
2022-08-05T03:44:11.008Z,81.95
2022-08-05T03:46:39.866Z,81.77
2022-08-05T03:49:07.474Z,81.86
2022-08-05T03:52:37.864Z,81.10
2022-08-05T03:55:52.467Z,81.42
2022-08-05T03:57:54.490Z,81.36
2022-08-05T04:00:26.750Z,81.38
2022-08-05T04:02:59.234Z,81.75
2022-08-05T04:05:34.581Z,81.37
2022-08-05T04:08:14.923Z,81.12
2022-08-05T04:10:59.231Z,81.15
2022-08-05T04:13:51.018Z,81.36
2022-08-05T04:16:24.388Z,81.02
2022-08-05T04:18:54.862Z,81.29
2022-08-05T04:22:08.092Z,81.13
2022-08-05T04:24:19.473Z,80.33
2022-08-05T04:26:50.588Z,81.01
2022-08-05T04:29:18.456Z,81.77
2022-08-05T04:31:48.454Z,82.49
2022-08-05T04:34:32.584Z,82.88
2022-08-05T04:37:03.162Z,83.03
2022-08-05T04:39:32.246Z,82.69
2022-08-05T04:42:00.517Z,82.88
2022-08-05T04:44:30.711Z,82.80
2022-08-05T04:46:59.535Z,82.78
2022-08-05T04:49:38.689Z,82.90
2022-08-05T04:52:16.096Z,82.95
2022-08-05T04:54:43.910Z,82.65
2022-08-05T04:57:16.380Z,82.21
2022-08-05T04:59:44.040Z,81.80
2022-08-05T05:02:36.594Z,82.16
2022-08-05T05:05:04.378Z,82.22
2022-08-05T05:07:52.836Z,82.52
2022-08-05T05:10:24.592Z,82.73
2022-08-05T05:12:58.403Z,82.51
2022-08-05T05:16:01.932Z,82.21
2022-08-05T05:18:28.468Z,82.70
2022-08-05T05:21:02.130Z,82.60
2022-08-05T05:23:39.119Z,82.45
2022-08-05T05:26:19.128Z,82.72
2022-08-05T05:28:46.768Z,83.04
2022-08-05T05:31:18.542Z,83.11
2022-08-05T05:33:59.214Z,83.01
2022-08-05T05:36:28.447Z,82.41
2022-08-05T05:39:00.688Z,82.40
2022-08-05T05:41:40.327Z,82.56
2022-08-05T05:44:35.525Z,81.86
2022-08-05T05:47:03.985Z,81.62
2022-08-05T05:49:33.464Z,81.32
2022-08-05T05:52:05.790Z,81.45
2022-08-05T05:54:49.729Z,81.65
2022-08-05T05:57:19.847Z,81.77
2022-08-05T05:59:48.960Z,81.91
2022-08-05T06:02:16.721Z,81.98
2022-08-05T06:04:49.079Z,81.87
2022-08-05T06:07:17.106Z,82.02
2022-08-05T06:10:00.860Z,82.19
2022-08-05T06:12:33.090Z,82.07
2022-08-05T06:15:03.727Z,82.35
2022-08-05T06:17:53.315Z,82.38
2022-08-05T06:20:22.486Z,81.59
2022-08-05T06:22:51.110Z,81.95
2022-08-05T06:25:59.717Z,82.14
2022-08-05T06:28:12.749Z,82.48
2022-08-05T06:30:49.153Z,81.95
2022-08-05T06:33:19.195Z,82.10
2022-08-05T06:36:07.829Z,82.04
2022-08-05T06:38:35.661Z,82.06
2022-08-05T06:41:05.273Z,81.91
2022-08-05T06:43:59.786Z,81.63
2022-08-05T06:46:24.018Z,81.55
2022-08-05T06:49:00.904Z,81.94
2022-08-05T06:51:30.984Z,81.82
2022-08-05T06:54:03.704Z,81.47
2022-08-05T06:56:34.330Z,80.91
2022-08-05T06:59:09.503Z,80.79
2022-08-05T07:01:40.752Z,80.73
2022-08-05T07:04:14.001Z,81.15
2022-08-05T07:06:42.656Z,81.90
2022-08-05T07:09:13.908Z,81.21
2022-08-05T07:11:44.599Z,81.30
2022-08-05T07:14:36.166Z,81.56
2022-08-05T07:17:58.596Z,81.92
2022-08-05T07:22:42.655Z,82.06
2022-08-05T07:25:54.359Z,81.73
2022-08-05T07:28:05.805Z,82.32
2022-08-05T07:30:38.877Z,82.82
2022-08-05T07:33:16.135Z,82.19
2022-08-05T07:36:02.192Z,82.37
2022-08-05T07:38:43.441Z,82.15
2022-08-05T07:42:07.959Z,82.41
2022-08-05T07:44:18.452Z,82.43
2022-08-05T07:46:49.313Z,82.28
2022-08-05T07:49:18.661Z,82.29
2022-08-05T07:51:53.077Z,81.91
2022-08-05T07:54:31.719Z,82.54
2022-08-05T07:57:18.171Z,82.06
2022-08-05T07:59:53.532Z,81.45
2022-08-05T08:02:26.677Z,81.89
2022-08-05T08:05:01.065Z,81.52
2022-08-05T08:07:39.410Z,80.83
2022-08-05T08:10:20.518Z,81.22
2022-08-05T08:12:51.773Z,81.57
2022-08-05T08:15:37.387Z,81.81
2022-08-05T08:18:14.369Z,81.90
2022-08-05T08:21:01.907Z,81.11
2022-08-05T08:24:02.599Z,80.64
2022-08-05T08:26:29.779Z,80.47
2022-08-05T08:29:21.822Z,80.72
2022-08-05T08:31:47.085Z,79.97
2022-08-05T08:34:30.719Z,80.07
2022-08-05T08:37:05.413Z,80.62
2022-08-05T08:39:37.466Z,80.40
2022-08-05T08:42:27.575Z,80.09
2022-08-05T08:45:23.212Z,80.74
2022-08-05T08:48:12.330Z,81.08
2022-08-05T08:51:04.034Z,81.35
2022-08-05T08:53:40.167Z,81.27
2022-08-05T08:56:15.651Z,81.95
2022-08-05T08:58:47.691Z,81.00
2022-08-05T09:01:18.543Z,81.09
2022-08-05T09:03:54.411Z,79.93
2022-08-05T09:06:30.627Z,80.14
2022-08-05T09:09:02.919Z,79.45
2022-08-05T09:11:51.249Z,80.12
2022-08-05T09:14:58.317Z,80.13
2022-08-05T09:17:40.828Z,78.84
2022-08-05T09:20:05.137Z,78.56
2022-08-05T09:23:18.929Z,78.14
2022-08-05T09:26:01.755Z,77.43
2022-08-05T09:28:34.501Z,76.20
2022-08-05T09:31:22.732Z,77.42
2022-08-05T09:34:01.536Z,78.46
2022-08-05T09:36:59.855Z,77.21
2022-08-05T09:39:45.663Z,76.95
2022-08-05T09:42:24.301Z,77.73
2022-08-05T09:45:17.691Z,77.72
2022-08-05T09:47:55.310Z,77.15
2022-08-05T09:50:44.073Z,76.06
2022-08-05T09:53:22.792Z,75.56
2022-08-05T09:56:12.639Z,75.61
2022-08-05T09:58:55.567Z,75.06
2022-08-05T10:01:31.688Z,73.79
2022-08-05T10:04:29.267Z,74.38
2022-08-05T10:07:01.543Z,72.61
2022-08-05T10:10:15.243Z,73.59
2022-08-05T10:12:56.330Z,72.35
2022-08-05T10:15:34.427Z,69.55
2022-08-05T10:18:22.322Z,71.04
2022-08-05T10:21:11.868Z,69.56
2022-08-05T10:23:59.645Z,68.79
2022-08-05T10:26:32.328Z,70.37
2022-08-05T10:29:02.681Z,71.73
2022-08-05T10:32:52.276Z,72.34
2022-08-05T10:34:25.783Z,72.97
2022-08-05T10:36:59.983Z,72.98
2022-08-05T10:39:59.468Z,69.89
2022-08-05T10:42:33.806Z,68.98
2022-08-05T10:45:21.447Z,67.01
2022-08-05T10:48:30.158Z,65.28
2022-08-05T10:51:04.759Z,63.06
2022-08-05T10:54:05.639Z,63.91
2022-08-05T10:56:57.622Z,64.66
2022-08-05T11:00:02.414Z,60.59
2022-08-05T11:02:38.672Z,55.44
2022-08-05T11:05:18.264Z,56.21
2022-08-05T11:08:04.620Z,52.10
2022-08-05T11:10:50.200Z,54.01
2022-08-05T11:13:58.046Z,53.23
2022-08-05T11:16:47.374Z,54.19
2022-08-05T11:20:10.082Z,52.27
2022-08-05T11:22:44.165Z,54.28
2022-08-05T11:26:05.417Z,51.77
2022-08-05T11:28:26.762Z,53.06
2022-08-05T11:30:58.297Z,53.36
2022-08-05T11:33:46.527Z,50.05
2022-08-05T11:36:34.556Z,51.74
2022-08-05T11:39:08.333Z,52.00
2022-08-05T11:42:01.601Z,52.90
2022-08-05T11:44:53.379Z,49.49
2022-08-05T11:47:48.310Z,51.11
2022-08-05T11:50:14.266Z,50.71
2022-08-05T11:52:44.093Z,51.00
2022-08-05T11:55:14.640Z,52.44
2022-08-05T11:58:10.454Z,54.03
2022-08-05T12:00:38.199Z,54.33
2022-08-05T12:03:23.949Z,55.14
2022-08-05T12:06:06.216Z,53.06
2022-08-05T12:08:48.032Z,51.84
2022-08-05T12:11:40.175Z,51.78
2022-08-05T12:14:10.133Z,53.77
2022-08-05T12:16:45.107Z,51.18
2022-08-05T12:20:26.398Z,50.87
2022-08-05T12:22:09.698Z,56.43
2022-08-05T12:24:49.654Z,55.36
2022-08-05T12:27:25.386Z,53.67
2022-08-05T12:30:03.927Z,56.28
2022-08-05T12:32:36.177Z,55.66
2022-08-05T12:35:09.353Z,55.27
2022-08-05T12:37:38.060Z,53.14
2022-08-05T12:40:26.613Z,52.26
2022-08-05T12:42:56.645Z,54.66
2022-08-05T12:45:42.545Z,53.39
2022-08-05T12:48:27.774Z,50.58
2022-08-05T12:52:11.210Z,55.75
2022-08-05T12:54:03.676Z,49.42
2022-08-05T12:56:35.308Z,52.56
2022-08-05T12:59:21.018Z,52.90
2022-08-05T13:02:07.084Z,50.44
2022-08-05T13:04:54.447Z,49.87
2022-08-05T13:10:19.579Z,52.44
2022-08-05T13:12:57.277Z,55.40
2022-08-05T13:15:36.128Z,54.60
2022-08-05T13:18:18.785Z,56.74
2022-08-05T13:20:49.711Z,57.45
2022-08-05T13:23:22.455Z,61.14
2022-08-05T13:25:59.558Z,61.59
2022-08-05T13:28:32.078Z,61.45
2022-08-05T13:31:00.400Z,61.16
2022-08-05T13:34:25.062Z,61.41
2022-08-05T13:36:30.084Z,62.39
2022-08-05T13:38:57.876Z,61.18
2022-08-05T13:41:37.368Z,60.20
2022-08-05T13:44:10.139Z,57.72
2022-08-05T13:47:04.548Z,56.55
2022-08-05T13:49:32.342Z,56.42
2022-08-05T13:52:29.212Z,55.58
2022-08-05T13:54:58.490Z,52.87
2022-08-05T13:57:50.900Z,53.71
2022-08-05T14:00:17.488Z,54.00
2022-08-05T14:02:45.131Z,55.62
2022-08-05T14:05:19.546Z,53.21
2022-08-05T14:08:20.292Z,53.35
2022-08-05T14:10:51.902Z,50.89
2022-08-05T14:13:19.766Z,52.60
2022-08-05T14:16:08.602Z,53.63
2022-08-05T14:18:39.674Z,51.13
2022-08-05T14:22:08.210Z,51.07
2022-08-05T14:24:00.712Z,50.36
2022-08-05T14:26:36.879Z,51.17
2022-08-05T14:29:16.018Z,52.97
2022-08-05T14:31:54.290Z,51.67
2022-08-05T14:34:35.286Z,51.56
2022-08-05T14:37:04.895Z,50.49
2022-08-05T14:39:49.598Z,50.30
2022-08-05T14:42:21.040Z,50.25
2022-08-05T14:44:49.836Z,50.65
2022-08-05T14:47:23.970Z,50.81
2022-08-05T14:50:15.652Z,48.38
2022-08-05T14:52:57.663Z,48.99
2022-08-05T14:55:28.743Z,47.93
2022-08-05T14:58:11.334Z,46.93
2022-08-05T15:00:59.592Z,44.69
2022-08-05T15:03:33.168Z,44.88
2022-08-05T15:06:08.295Z,42.69
2022-08-05T15:09:01.173Z,43.62
2022-08-05T15:11:51.556Z,43.64
2022-08-05T15:14:34.789Z,43.85
2022-08-05T15:17:09.855Z,44.88
2022-08-05T15:19:53.555Z,45.93
2022-08-05T15:22:27.403Z,44.52
2022-08-05T15:24:58.438Z,44.29
2022-08-05T15:27:26.695Z,45.01
2022-08-05T15:30:05.001Z,44.51
2022-08-05T15:32:32.876Z,45.91
2022-08-05T15:35:04.058Z,44.88
2022-08-05T15:38:34.951Z,44.50
2022-08-05T15:41:04.617Z,43.19
2022-08-05T15:43:21.053Z,43.93
2022-08-05T15:46:00.474Z,45.10
2022-08-05T15:48:30.166Z,44.16
2022-08-05T15:50:58.310Z,42.68
2022-08-05T15:53:37.818Z,42.43
2022-08-05T15:56:11.556Z,44.03
2022-08-05T15:58:41.617Z,43.35
2022-08-05T16:01:16.059Z,43.05
2022-08-05T16:03:50.470Z,45.38
2022-08-05T16:06:19.646Z,43.87
2022-08-05T16:08:50.390Z,43.88
2022-08-05T16:11:42.366Z,43.16
2022-08-05T16:14:17.389Z,43.02
2022-08-05T16:16:46.155Z,42.46
2022-08-05T16:19:25.711Z,41.34
2022-08-05T16:22:06.936Z,41.46
2022-08-05T16:24:51.837Z,42.01
2022-08-05T16:27:32.052Z,41.19
2022-08-05T16:30:26.337Z,41.61
2022-08-05T16:32:57.849Z,41.20
2022-08-05T16:35:32.419Z,42.06
2022-08-05T16:38:23.929Z,40.68
2022-08-05T16:41:00.258Z,41.45
2022-08-05T16:43:34.215Z,39.65
2022-08-05T16:46:23.556Z,40.11
2022-08-05T16:48:52.662Z,39.59
2022-08-05T16:51:30.697Z,40.95
2022-08-05T16:54:17.439Z,41.03
2022-08-05T16:56:51.977Z,40.02
2022-08-05T16:59:27.669Z,40.21
2022-08-05T17:02:01.066Z,39.69
2022-08-05T17:04:28.956Z,40.59
2022-08-05T17:07:01.605Z,39.45
2022-08-05T17:09:56.027Z,39.83
2022-08-05T17:12:22.309Z,39.89
2022-08-05T17:14:50.830Z,40.56
2022-08-05T17:17:19.688Z,40.58
2022-08-05T17:19:55.436Z,40.01
2022-08-05T17:22:24.682Z,40.36
2022-08-05T17:24:58.696Z,40.60
2022-08-05T17:27:33.895Z,39.78
2022-08-05T17:30:11.936Z,40.57
2022-08-05T17:32:42.320Z,40.73
2022-08-05T17:35:15.838Z,41.02
2022-08-05T17:37:49.339Z,41.16
2022-08-05T17:40:22.411Z,41.22
2022-08-05T17:42:52.942Z,41.79
2022-08-05T17:45:25.172Z,41.49
2022-08-05T17:48:08.352Z,42.36
2022-08-05T17:50:38.516Z,42.56
2022-08-05T17:53:08.583Z,42.28
2022-08-05T17:55:39.457Z,42.88
2022-08-05T17:58:16.169Z,42.44
2022-08-05T18:00:50.822Z,41.69
2022-08-05T18:06:12.405Z,42.93
2022-08-05T18:08:47.550Z,42.91
2022-08-05T18:11:33.617Z,43.62
2022-08-05T18:14:04.254Z,44.06
2022-08-05T18:16:51.219Z,44.51
2022-08-05T18:19:22.823Z,45.48
2022-08-05T18:22:07.503Z,44.63
2022-08-05T18:24:40.169Z,45.38
2022-08-05T18:27:18.316Z,45.86
2022-08-05T18:29:53.553Z,46.68
2022-08-05T18:32:27.742Z,45.78
2022-08-05T18:34:56.860Z,46.29
2022-08-05T18:37:34.619Z,46.04
2022-08-05T18:41:50.074Z,46.46
2022-08-05T18:42:59.523Z,46.33
2022-08-05T18:45:41.296Z,46.57
2022-08-05T18:48:11.870Z,46.38
2022-08-05T18:52:02.813Z,46.49
2022-08-05T18:53:52.430Z,47.10
2022-08-05T18:56:21.807Z,47.57
2022-08-05T18:58:54.893Z,47.10
2022-08-05T19:01:33.390Z,46.74
2022-08-05T19:04:23.945Z,47.18
2022-08-05T19:06:53.593Z,47.17
2022-08-05T19:09:21.857Z,47.92
2022-08-05T19:12:00.248Z,47.99
2022-08-05T19:14:52.113Z,48.41
2022-08-05T19:17:17.977Z,48.59
2022-08-05T19:19:48.602Z,49.02
2022-08-05T19:22:17.209Z,49.60
2022-08-05T19:24:54.414Z,49.68
2022-08-05T19:27:27.769Z,50.38
2022-08-05T19:29:57.880Z,51.03
2022-08-05T19:32:27.893Z,51.29
2022-08-05T19:34:56.755Z,51.45
2022-08-05T19:37:35.073Z,51.29
2022-08-05T19:40:17.108Z,51.55
2022-08-05T19:43:00.706Z,52.21
2022-08-05T19:45:36.939Z,53.13
2022-08-05T19:48:06.400Z,52.84
2022-08-05T19:50:35.139Z,53.09
2022-08-05T19:53:09.411Z,53.07
2022-08-05T19:56:14.765Z,53.77
2022-08-05T19:58:38.458Z,53.47
2022-08-05T20:01:24.725Z,53.74
2022-08-05T20:03:56.750Z,53.95
2022-08-05T20:06:28.684Z,54.32
2022-08-05T20:08:59.003Z,54.27
2022-08-05T20:11:29.883Z,54.36
2022-08-05T20:14:12.096Z,54.54
2022-08-05T20:16:41.281Z,55.08
2022-08-05T20:19:11.608Z,54.79
2022-08-05T20:21:44.837Z,55.02
2022-08-05T20:24:14.398Z,55.02
2022-08-05T20:26:44.181Z,55.40
2022-08-05T20:29:27.354Z,55.81
2022-08-05T20:31:58.298Z,55.78
2022-08-05T20:34:27.883Z,55.42
2022-08-05T20:36:55.515Z,55.84
2022-08-05T20:39:23.209Z,55.87
2022-08-05T20:41:51.347Z,55.71
2022-08-05T20:44:29.444Z,55.65
2022-08-05T20:47:03.168Z,55.29
2022-08-05T20:49:39.413Z,55.31
2022-08-05T20:52:10.686Z,54.94
2022-08-05T20:54:42.982Z,54.99
2022-08-05T20:57:41.928Z,54.96
2022-08-05T21:00:40.221Z,55.14
2022-08-05T21:03:07.911Z,55.56
2022-08-05T21:05:53.637Z,55.47
2022-08-05T21:08:35.984Z,55.65
2022-08-05T21:12:07.551Z,56.12
2022-08-05T21:14:05.552Z,56.77
2022-08-05T21:16:33.602Z,56.95
2022-08-05T21:19:03.786Z,57.12
2022-08-05T21:21:43.881Z,57.55
2022-08-05T21:24:15.459Z,57.82
2022-08-05T21:26:50.518Z,57.52
2022-08-05T21:29:31.476Z,57.26
2022-08-05T21:32:01.479Z,56.79
2022-08-05T21:34:29.363Z,57.47
2022-08-05T21:36:59.416Z,57.78
2022-08-05T21:39:28.086Z,57.89
2022-08-05T21:42:01.107Z,58.36
2022-08-05T21:44:30.999Z,58.46
2022-08-05T21:46:59.756Z,58.86
2022-08-05T21:50:00.322Z,58.99
2022-08-05T21:52:27.894Z,58.55
2022-08-05T21:55:05.993Z,57.83
2022-08-05T21:57:35.614Z,57.73
2022-08-05T22:00:10.705Z,58.01
2022-08-05T22:02:43.384Z,58.29
2022-08-05T22:05:13.391Z,58.99
2022-08-05T22:07:59.161Z,58.49
2022-08-05T22:10:31.061Z,58.30
2022-08-05T22:13:09.173Z,58.64
2022-08-05T22:16:04.631Z,58.83
2022-08-05T22:18:35.445Z,58.98
2022-08-05T22:21:03.973Z,59.08
2022-08-05T22:24:01.282Z,59.46
2022-08-05T22:26:53.300Z,59.64
2022-08-05T22:29:26.704Z,59.69
2022-08-05T22:32:02.561Z,59.99
2022-08-05T22:34:31.304Z,60.19
2022-08-05T22:36:59.936Z,60.83
2022-08-05T22:39:33.242Z,60.93
2022-08-05T22:42:12.361Z,61.26
2022-08-05T22:44:56.216Z,61.27
2022-08-05T22:47:28.897Z,61.43
2022-08-05T22:50:19.629Z,61.41
2022-08-05T22:52:48.275Z,61.79
2022-08-05T22:55:19.210Z,62.12
2022-08-05T22:57:53.269Z,62.34
2022-08-05T23:00:22.974Z,62.37
2022-08-05T23:02:53.311Z,62.74
2022-08-05T23:05:22.779Z,62.88
2022-08-05T23:07:51.691Z,62.76
2022-08-05T23:10:23.627Z,63.18
2022-08-05T23:12:54.589Z,63.30
2022-08-05T23:15:29.579Z,63.37
2022-08-05T23:18:03.554Z,63.32
2022-08-05T23:20:37.291Z,63.40
2022-08-05T23:23:08.180Z,63.54
2022-08-05T23:25:54.635Z,63.56
2022-08-05T23:28:28.804Z,63.64
2022-08-05T23:31:07.053Z,63.72
2022-08-05T23:34:03.994Z,64.14
2022-08-05T23:36:40.178Z,64.44
2022-08-05T23:39:16.414Z,64.25
2022-08-05T23:41:51.863Z,64.32
2022-08-05T23:44:22.671Z,64.55
2022-08-05T23:46:53.594Z,64.67
2022-08-05T23:49:33.811Z,64.85
2022-08-05T23:52:25.301Z,64.91
2022-08-05T23:54:56.562Z,65.10
2022-08-05T23:57:28.266Z,65.46
